Time;durP1;ratioP1;P1;durP2;ratioP2;P2;SDS_P1;SDS_P2;PMS_P1;PMS_P2;Temp;Humidity;BMP_temperature;BMP_pressure;BME280_temperature;BME280_humidity;BME280_pressure;Samples;Min_cycle;Max_cycle;Signal;HPM_P1;HPM_P2
2021/03/26 00:02:11;;;;;;;116.15;69.70;;;8.20;94.80;;;;;;5094024;28;20277;-82
2021/03/26 00:04:38;;;;;;;125.75;71.68;;;8.10;95.00;;;;;;5118793;28;20416;-82
2021/03/26 00:07:05;;;;;;;118.53;68.28;;;8.00;95.40;;;;;;5117834;28;20240;-83
2021/03/26 00:09:34;;;;;;;117.45;71.65;;;7.80;95.70;;;;;;5118531;28;20293;-82
2021/03/26 00:12:06;;;;;;;116.72;68.50;;;7.70;96.00;;;;;;5121493;27;20261;-82
2021/03/26 00:14:33;;;;;;;124.72;72.50;;;7.70;95.90;;;;;;5114442;27;20196;-82
2021/03/26 00:16:59;;;;;;;137.18;74.07;;;7.70;95.90;;;;;;5095321;28;20226;-81
2021/03/26 00:19:27;;;;;;;128.18;75.60;;;7.80;95.80;;;;;;5110628;28;20201;-81
2021/03/26 00:21:54;;;;;;;135.45;80.57;;;7.80;95.70;;;;;;5092243;28;20411;-81
2021/03/26 00:24:21;;;;;;;124.90;76.30;;;7.80;96.10;;;;;;5115162;28;20201;-80
2021/03/26 00:26:47;;;;;;;125.13;70.75;;;7.80;95.70;;;;;;5098177;28;20535;-79
2021/03/26 00:29:19;;;;;;;136.95;80.65;;;7.90;95.80;;;;;;5118537;28;20194;-80
2021/03/26 00:31:46;;;;;;;132.82;76.45;;;7.90;95.50;;;;;;5112733;28;20197;-79
2021/03/26 00:34:13;;;;;;;125.15;72.97;;;7.80;95.80;;;;;;5108012;28;20239;-81
2021/03/26 00:36:40;;;;;;;130.48;77.13;;;7.70;95.90;;;;;;5110812;28;20205;-82
2021/03/26 00:39:08;;;;;;;135.65;80.50;;;7.80;95.90;;;;;;5125841;28;20204;-80
2021/03/26 00:41:37;;;;;;;135.40;79.38;;;7.80;95.60;;;;;;5112007;28;20270;-80
2021/03/26 00:44:04;;;;;;;156.93;86.25;;;7.80;96.00;;;;;;5118592;28;20221;-80
2021/03/26 00:46:34;;;;;;;133.15;76.45;;;7.70;95.80;;;;;;5102750;28;20224;-81
2021/03/26 00:49:01;;;;;;;139.50;75.28;;;7.70;95.80;;;;;;5113525;28;20194;-80
2021/03/26 00:51:27;;;;;;;149.25;86.90;;;7.60;95.80;;;;;;5119127;27;20212;-80
2021/03/26 00:53:54;;;;;;;141.95;81.65;;;7.60;96.00;;;;;;5123800;28;20246;-79
2021/03/26 00:56:21;;;;;;;133.88;75.50;;;7.70;95.90;;;;;;5117965;27;20209;-80
2021/03/26 00:58:47;;;;;;;124.53;76.10;;;7.70;95.80;;;;;;5104736;28;20198;-80
2021/03/26 01:01:14;;;;;;;140.55;80.43;;;7.70;95.80;;;;;;5121148;27;20279;-78
2021/03/26 01:03:41;;;;;;;144.07;79.75;;;7.70;95.90;;;;;;5104220;28;20554;-79
2021/03/26 01:06:10;;;;;;;135.88;82.32;;;7.50;96.20;;;;;;5125566;28;20376;-79
2021/03/26 01:08:38;;;;;;;143.93;81.95;;;7.50;96.20;;;;;;5135941;27;20197;-78
2021/03/26 01:11:12;;;;;;;134.25;81.18;;;7.50;96.30;;;;;;5113124;28;20204;-79
2021/03/26 01:13:39;;;;;;;142.48;85.22;;;7.40;96.40;;;;;;5119295;28;20260;-81
2021/03/26 01:16:06;;;;;;;141.45;83.63;;;7.50;96.40;;;;;;5115155;28;20380;-80
2021/03/26 01:18:41;;;;;;;145.32;79.60;;;7.40;97.00;;;;;;5107296;27;20437;-82
2021/03/26 01:21:12;;;;;;;142.18;80.68;;;7.50;96.50;;;;;;5113439;28;20205;-82
2021/03/26 01:23:40;;;;;;;128.18;78.35;;;7.50;96.40;;;;;;5112901;27;20298;-82
2021/03/26 01:26:06;;;;;;;140.15;79.15;;;7.50;96.30;;;;;;5105221;28;20384;-81
2021/03/26 01:28:33;;;;;;;144.05;76.47;;;7.60;96.30;;;;;;5105347;28;20200;-81
2021/03/26 01:31:00;;;;;;;144.70;82.18;;;7.70;96.10;;;;;;5114700;28;20374;-81
2021/03/26 01:33:27;;;;;;;128.45;81.03;;;7.80;95.90;;;;;;5097515;28;20235;-81
2021/03/26 01:35:56;;;;;;;122.10;76.53;;;7.90;95.70;;;;;;5107526;28;20265;-81
2021/03/26 01:38:23;;;;;;;132.95;73.95;;;8.00;95.40;;;;;;5104858;28;20269;-82
2021/03/26 01:40:57;;;;;;;127.47;77.63;;;8.10;95.40;;;;;;5108801;28;20269;-81
2021/03/26 01:43:50;;;;;;;135.93;78.45;;;8.10;95.30;;;;;;5115635;27;20225;-81
2021/03/26 01:46:17;;;;;;;123.97;69.85;;;8.20;95.10;;;;;;5101139;28;20228;-80
2021/03/26 01:48:48;;;;;;;126.43;73.68;;;8.20;94.90;;;;;;5125193;27;20269;-79
2021/03/26 01:51:30;;;;;;;124.28;73.10;;;8.20;94.80;;;;;;5114913;27;20210;-79
2021/03/26 01:53:58;;;;;;;125.30;73.47;;;8.30;94.70;;;;;;5123302;28;20228;-79
2021/03/26 01:56:25;;;;;;;130.10;72.20;;;8.30;94.60;;;;;;5120582;28;20201;-80
2021/03/26 01:58:54;;;;;;;116.57;70.72;;;8.30;94.50;;;;;;5110877;28;20222;-79
2021/03/26 02:01:27;;;;;;;119.18;71.15;;;8.10;94.80;;;;;;5127318;27;20378;-82
2021/03/26 02:04:03;;;;;;;125.13;71.32;;;8.10;94.90;;;;;;5103570;28;20231;-82
2021/03/26 02:06:33;;;;;;;118.63;70.90;;;8.10;94.90;;;;;;5117210;28;20233;-80
2021/03/26 02:09:15;;;;;;;116.13;71.35;;;8.10;94.90;;;;;;5123740;28;20523;-80
2021/03/26 02:11:58;;;;;;;110.60;66.72;;;8.10;94.90;;;;;;5120757;28;20221;-80
2021/03/26 02:14:32;;;;;;;119.25;67.70;;;8.10;94.80;;;;;;5119036;28;20526;-81
2021/03/26 02:17:00;;;;;;;116.72;69.47;;;8.10;95.20;;;;;;5140074;27;20201;-81
2021/03/26 02:19:54;;;;;;;114.50;68.63;;;8.10;95.00;;;;;;5086163;28;20205;-81
2021/03/26 02:22:23;;;;;;;115.88;69.10;;;8.10;94.90;;;;;;5100897;28;20293;-80
2021/03/26 02:24:51;;;;;;;112.30;69.38;;;8.00;94.90;;;;;;5114238;28;20239;-80
2021/03/26 02:27:23;;;;;;;118.80;69.65;;;8.30;94.80;;;;;;5120690;28;20212;-79
2021/03/26 02:29:51;;;;;;;121.07;68.47;;;8.30;94.70;;;;;;5121457;28;20233;-80
2021/03/26 02:32:27;;;;;;;115.75;68.55;;;8.30;94.40;;;;;;5103146;28;20392;-79
2021/03/26 02:35:24;;;;;;;103.90;67.88;;;8.20;94.40;;;;;;5094061;27;20195;-80
2021/03/26 02:38:16;;;;;;;109.45;67.20;;;8.20;94.60;;;;;;5110603;28;20225;-80
2021/03/26 02:41:11;;;;;;;108.55;65.32;;;8.30;94.50;;;;;;5111956;28;20194;-80
2021/03/26 02:44:07;;;;;;;112.82;67.20;;;8.40;94.20;;;;;;5095633;28;20243;-80
2021/03/26 02:46:41;;;;;;;113.63;66.97;;;8.10;94.60;;;;;;5117751;28;20375;-81
2021/03/26 02:49:14;;;;;;;133.10;71.55;;;8.20;94.80;;;;;;5093835;28;20195;-81
2021/03/26 02:51:48;;;;;;;115.90;68.30;;;8.30;94.80;;;;;;5122122;27;20430;-81
2021/03/26 02:54:45;;;;;;;110.78;67.38;;;8.40;94.50;;;;;;5116361;28;20201;-80
2021/03/26 02:57:19;;;;;;;111.07;67.25;;;8.70;94.00;;;;;;5120535;28;20221;-78
2021/03/26 02:59:51;;;;;;;122.28;71.32;;;8.60;93.60;;;;;;5115421;28;20209;-79
2021/03/26 03:02:21;;;;;;;121.32;69.07;;;8.40;94.20;;;;;;5112943;28;20272;-80
2021/03/26 03:04:58;;;;;;;111.95;67.25;;;8.10;94.50;;;;;;5111859;28;20465;-80
2021/03/26 03:07:33;;;;;;;110.55;61.03;;;8.30;94.50;;;;;;5094158;28;20205;-79
2021/03/26 03:10:28;;;;;;;108.80;66.88;;;8.40;94.30;;;;;;5117479;28;20228;-80
2021/03/26 03:13:12;;;;;;;104.22;63.42;;;8.20;94.50;;;;;;5092490;28;20203;-80
2021/03/26 03:15:47;;;;;;;103.63;65.15;;;8.50;94.30;;;;;;5107627;28;20198;-80
2021/03/26 03:18:28;;;;;;;114.63;66.35;;;8.80;94.10;;;;;;5116786;28;20268;-81
2021/03/26 03:21:15;;;;;;;106.25;67.65;;;8.90;94.10;;;;;;5116109;28;20223;-80
2021/03/26 03:23:51;;;;;;;115.72;69.15;;;8.90;94.40;;;;;;5086795;28;20586;-81
2021/03/26 03:26:39;;;;;;;114.47;64.40;;;8.90;94.10;;;;;;5113210;28;20314;-80
2021/03/26 03:29:20;;;;;;;107.25;65.93;;;8.20;94.00;;;;;;5099730;28;20240;-82
2021/03/26 03:32:35;;;;;;;102.82;66.13;;;8.90;94.50;;;;;;5117574;28;20196;-79
2021/03/26 03:35:37;;;;;;;110.00;66.97;;;9.00;94.50;;;;;;5101633;28;20205;-79
2021/03/26 03:38:28;;;;;;;110.00;67.18;;;8.70;94.60;;;;;;5116030;28;20268;-79
2021/03/26 03:41:00;;;;;;;102.80;64.30;;;8.60;94.70;;;;;;5117669;28;20198;-79
2021/03/26 03:43:54;;;;;;;115.63;68.50;;;8.30;95.40;;;;;;5099995;28;20221;-79
2021/03/26 03:46:25;;;;;;;115.65;71.47;;;8.00;96.50;;;;;;5102211;28;20268;-80
2021/03/26 03:49:10;;;;;;;114.07;68.30;;;8.00;97.10;;;;;;5084369;28;20228;-81
2021/03/26 03:52:10;;;;;;;109.50;66.20;;;7.70;97.50;;;;;;5111066;28;20260;-79
2021/03/26 03:55:00;;;;;;;108.57;67.60;;;7.70;97.60;;;;;;5108491;28;20513;-81
2021/03/26 03:57:35;;;;;;;114.03;69.13;;;7.70;97.90;;;;;;5085941;28;20194;-80
2021/03/26 04:00:08;;;;;;;109.43;66.30;;;7.80;97.30;;;;;;5118577;28;20185;-80
2021/03/26 04:02:44;;;;;;;117.30;67.88;;;8.10;97.00;;;;;;5122461;28;20226;-80
2021/03/26 04:05:14;;;;;;;118.20;68.88;;;8.30;96.60;;;;;;5092520;28;20220;-78
2021/03/26 04:07:45;;;;;;;121.40;67.55;;;8.40;96.70;;;;;;5108906;28;20226;-80
2021/03/26 04:10:14;;;;;;;117.40;70.30;;;8.40;96.60;;;;;;5115141;28;20250;-81
2021/03/26 04:12:44;;;;;;;120.25;69.45;;;8.40;96.50;;;;;;5124719;28;20280;-80
2021/03/26 04:15:35;;;;;;;109.15;64.38;;;8.30;96.70;;;;;;5108534;28;20232;-80
2021/03/26 04:18:05;;;;;;;118.10;70.10;;;8.30;96.90;;;;;;5114752;28;20496;-81
2021/03/26 04:20:37;;;;;;;116.25;69.35;;;8.30;96.90;;;;;;5120432;27;20214;-80
2021/03/26 04:23:17;;;;;;;114.38;68.22;;;8.50;96.50;;;;;;5119841;28;20218;-80
2021/03/26 04:25:56;;;;;;;110.82;71.43;;;8.60;96.30;;;;;;5118550;28;20202;-80
2021/03/26 04:28:31;;;;;;;135.95;75.25;;;8.60;96.20;;;;;;5135346;27;20193;-80
2021/03/26 04:31:06;;;;;;;114.78;68.75;;;8.40;96.40;;;;;;5114660;28;20193;-80
2021/03/26 04:33:33;;;;;;;113.05;70.78;;;8.50;96.30;;;;;;5123071;28;20224;-80
2021/03/26 04:36:05;;;;;;;127.10;73.45;;;8.50;96.40;;;;;;5094043;28;20198;-80
2021/03/26 04:38:48;;;;;;;126.03;70.63;;;8.50;96.50;;;;;;5120082;28;20209;-80
2021/03/26 04:41:24;;;;;;;117.45;66.93;;;8.50;96.50;;;;;;5087456;28;20202;-80
2021/03/26 04:44:05;;;;;;;114.15;67.43;;;8.40;96.70;;;;;;5106443;28;20550;-80
2021/03/26 04:46:44;;;;;;;111.07;68.45;;;8.50;96.80;;;;;;5096627;28;20205;-81
2021/03/26 04:49:20;;;;;;;109.00;66.82;;;8.60;96.50;;;;;;5107077;28;20383;-80
2021/03/26 04:52:08;;;;;;;117.35;69.78;;;8.60;96.40;;;;;;5100183;28;20201;-80
2021/03/26 04:54:56;;;;;;;116.20;66.82;;;8.60;96.30;;;;;;5124329;28;20205;-80
2021/03/26 04:57:30;;;;;;;103.57;63.72;;;8.60;96.40;;;;;;5125191;28;20197;-81
2021/03/26 05:00:12;;;;;;;111.57;68.45;;;8.80;95.90;;;;;;5124495;28;20204;-81
2021/03/26 05:02:56;;;;;;;109.40;66.70;;;8.90;95.70;;;;;;5124053;27;20217;-81
2021/03/26 05:05:25;;;;;;;105.38;67.25;;;8.90;95.90;;;;;;5125287;28;20235;-81
2021/03/26 05:07:58;;;;;;;110.43;68.60;;;9.00;95.40;;;;;;5122289;28;20365;-81
2021/03/26 05:10:28;;;;;;;112.00;69.32;;;8.70;95.30;;;;;;5121988;28;20226;-81
2021/03/26 05:13:02;;;;;;;114.57;70.55;;;8.80;95.30;;;;;;5123857;28;20582;-81
2021/03/26 05:15:34;;;;;;;118.50;71.50;;;8.80;95.20;;;;;;5114283;28;20201;-81
2021/03/26 05:18:29;;;;;;;113.55;71.43;;;8.90;95.20;;;;;;5121842;28;20217;-81
2021/03/26 05:21:06;;;;;;;106.03;67.05;;;8.70;95.40;;;;;;5114735;28;20269;-80
2021/03/26 05:23:47;;;;;;;112.18;70.13;;;8.70;95.50;;;;;;5111606;28;20218;-80
2021/03/26 05:26:15;;;;;;;109.00;61.13;;;8.50;95.40;;;;;;5111218;28;20236;-80
2021/03/26 05:28:45;;;;;;;100.60;63.00;;;8.50;95.60;;;;;;5115200;28;20269;-82
2021/03/26 05:31:31;;;;;;;103.72;62.90;;;8.40;95.60;;;;;;5102786;28;20479;-85
2021/03/26 05:34:06;;;;;;;106.32;61.25;;;8.50;95.70;;;;;;5120352;28;20205;-83
2021/03/26 05:36:38;;;;;;;103.53;60.03;;;8.20;95.90;;;;;;5112018;28;20206;-83
2021/03/26 05:39:17;;;;;;;107.03;59.58;;;8.30;96.00;;;;;;5107987;28;20198;-85
2021/03/26 05:41:56;;;;;;;102.40;60.92;;;8.30;95.80;;;;;;5107369;28;20198;-79
2021/03/26 05:44:28;;;;;;;94.47;56.35;;;8.10;96.00;;;;;;5120611;28;20281;-78
2021/03/26 05:47:19;;;;;;;90.05;57.60;;;8.20;96.10;;;;;;5114417;28;20206;-80
2021/03/26 05:49:58;;;;;;;87.10;56.17;;;8.20;95.80;;;;;;5129721;27;20386;-82
2021/03/26 05:52:43;;;;;;;93.82;59.50;;;8.40;95.60;;;;;;5116532;27;20442;-81
2021/03/26 05:55:33;;;;;;;96.90;56.00;;;8.50;95.50;;;;;;5129100;27;20206;-81
2021/03/26 05:58:30;;;;;;;88.43;54.97;;;8.40;95.70;;;;;;5106551;28;20224;-80
2021/03/26 06:01:00;;;;;;;89.90;54.00;;;8.40;95.30;;;;;;5086759;28;20511;-81
2021/03/26 06:04:05;;;;;;;80.40;52.13;;;8.40;95.40;;;;;;5105743;28;20230;-81
2021/03/26 06:07:13;;;;;;;86.75;54.97;;;8.40;95.20;;;;;;5113414;28;20194;-79
2021/03/26 06:10:18;;;;;;;83.07;53.25;;;8.70;95.00;;;;;;5107378;28;20230;-80
2021/03/26 06:13:06;;;;;;;87.45;52.38;;;8.90;94.60;;;;;;5111541;28;20265;-81
2021/03/26 06:15:44;;;;;;;75.00;49.72;;;9.20;94.10;;;;;;5097889;28;20211;-82
2021/03/26 06:18:20;;;;;;;89.15;54.10;;;9.40;93.50;;;;;;5098459;28;20364;-82
2021/03/26 06:20:59;;;;;;;85.60;54.10;;;9.40;93.20;;;;;;5092841;28;20200;-82
2021/03/26 06:23:43;;;;;;;81.40;52.10;;;9.50;93.40;;;;;;5114244;28;20295;-81
2021/03/26 06:26:25;;;;;;;80.93;50.70;;;9.60;93.10;;;;;;5112882;28;20195;-81
2021/03/26 06:29:16;;;;;;;89.40;52.25;;;9.90;92.60;;;;;;5119423;27;20196;-82
2021/03/26 06:32:02;;;;;;;82.57;53.65;;;10.00;92.70;;;;;;5115633;28;20199;-81
2021/03/26 06:34:56;;;;;;;97.95;56.47;;;10.00;92.40;;;;;;5113973;28;20262;-83
2021/03/26 06:37:39;;;;;;;79.88;52.50;;;10.30;92.20;;;;;;5100583;28;20254;-83
2021/03/26 06:40:32;;;;;;;73.50;49.20;;;10.30;91.40;;;;;;5111576;28;20212;-83
2021/03/26 06:43:24;;;;;;;80.40;48.95;;;10.50;91.40;;;;;;5121830;28;20230;-84
2021/03/26 06:46:27;;;;;;;77.05;51.83;;;10.50;91.10;;;;;;5092513;28;20389;-83
2021/03/26 06:49:14;;;;;;;76.78;49.67;;;10.50;91.00;;;;;;5119626;28;20214;-81
2021/03/26 06:52:08;;;;;;;75.68;51.72;;;10.60;91.70;;;;;;5113718;28;20317;-85
2021/03/26 06:54:51;;;;;;;84.07;50.72;;;11.00;91.00;;;;;;5110559;28;20211;-83
2021/03/26 06:57:39;;;;;;;71.53;49.97;;;11.00;90.50;;;;;;5118774;28;20264;-81
2021/03/26 07:00:24;;;;;;;72.30;49.63;;;10.90;90.70;;;;;;5094235;28;20264;-84
2021/03/26 07:02:57;;;;;;;82.18;55.00;;;10.60;90.80;;;;;;5090073;28;20224;-82
2021/03/26 07:05:52;;;;;;;81.00;51.75;;;10.70;91.20;;;;;;5104319;28;20203;-83
2021/03/26 07:08:40;;;;;;;73.88;51.92;;;11.00;90.70;;;;;;5113286;28;20378;-82
2021/03/26 07:11:11;;;;;;;82.35;54.83;;;11.10;90.40;;;;;;5120254;28;20196;-82
2021/03/26 07:14:15;;;;;;;85.70;54.05;;;11.30;90.40;;;;;;5096052;28;20276;-83
2021/03/26 07:17:15;;;;;;;77.07;52.00;;;11.50;88.90;;;;;;5120262;28;20200;-85
2021/03/26 07:19:57;;;;;;;84.07;51.78;;;11.90;88.90;;;;;;5116499;28;20204;-83
2021/03/26 07:22:27;;;;;;;77.25;53.15;;;12.30;87.20;;;;;;5101822;28;20206;-83
2021/03/26 07:25:47;;;;;;;87.43;54.67;;;12.70;86.40;;;;;;5123685;28;20276;-82
2021/03/26 07:28:24;;;;;;;73.35;53.13;;;13.00;83.90;;;;;;5047563;28;20458;-84
2021/03/26 07:30:58;;;;;;;79.32;53.97;;;13.80;80.50;;;;;;5092973;28;20204;-82
2021/03/26 07:33:56;;;;;;;70.13;52.47;;;15.60;74.20;;;;;;5123878;28;20205;-81
2021/03/26 07:36:33;;;;;;;85.13;55.90;;;16.60;70.00;;;;;;5122208;28;20210;-82
2021/03/26 07:39:19;;;;;;;80.47;57.05;;;16.50;69.00;;;;;;5119196;28;20470;-82
2021/03/26 07:42:27;;;;;;;75.43;56.17;;;16.50;68.00;;;;;;5116575;28;20200;-82
2021/03/26 07:45:30;;;;;;;84.93;57.30;;;16.80;65.90;;;;;;5030351;28;20841;-83
2021/03/26 07:48:06;;;;;;;72.80;56.10;;;18.80;60.20;;;;;;5094773;28;20444;-82
2021/03/26 07:50:58;;;;;;;79.80;58.57;;;20.40;53.40;;;;;;5107550;28;20401;-83
2021/03/26 07:53:35;;;;;;;69.90;56.63;;;20.70;51.70;;;;;;5143159;27;20406;-81
2021/03/26 07:56:43;;;;;;;81.53;59.10;;;20.00;51.70;;;;;;5121113;28;20425;-81
2021/03/26 07:59:36;;;;;;;70.90;54.73;;;19.90;52.70;;;;;;5101830;28;20435;-83
2021/03/26 08:02:17;;;;;;;66.33;53.43;;;19.50;54.00;;;;;;5118227;27;20416;-82
2021/03/26 08:05:11;;;;;;;69.57;53.70;;;19.70;52.60;;;;;;5108712;28;20422;-82
2021/03/26 08:08:08;;;;;;;89.27;58.23;;;20.30;52.60;;;;;;5122371;28;20440;-83
2021/03/26 08:10:48;;;;;;;82.43;58.20;;;21.60;48.50;;;;;;5117459;28;20492;-82
2021/03/26 08:13:47;;;;;;;79.73;58.47;;;21.50;49.30;;;;;;5102872;28;20460;-82
2021/03/26 08:16:17;;;;;;;71.00;53.10;;;22.30;46.00;;;;;;5075777;27;20667;-81
2021/03/26 08:19:01;;;;;;;70.37;54.73;;;22.10;47.00;;;;;;5103507;28;20396;-83
2021/03/26 08:21:31;;;;;;;68.57;53.00;;;22.00;47.00;;;;;;5122037;28;20727;-81
2021/03/26 08:24:19;;;;;;;74.67;56.20;;;20.90;49.80;;;;;;5126858;28;20537;-83
2021/03/26 08:27:01;;;;;;;72.23;52.17;;;21.50;49.10;;;;;;5124533;28;20410;-82
2021/03/26 08:29:55;;;;;;;62.07;50.33;;;21.70;48.60;;;;;;5099397;28;20437;-83
2021/03/26 08:32:25;;;;;;;59.53;46.97;;;22.40;47.40;;;;;;5113305;28;20402;-81
2021/03/26 08:35:29;;;;;;;62.60;50.53;;;22.10;45.70;;;;;;5113351;28;20440;-82
2021/03/26 08:38:36;;;;;;;60.50;50.70;;;22.20;46.30;;;;;;5108657;28;20400;-83
2021/03/26 08:41:18;;;;;;;72.23;52.67;;;23.00;43.90;;;;;;5125850;27;20484;-83
2021/03/26 08:43:51;;;;;;;69.40;54.87;;;23.40;44.50;;;;;;5102536;28;20538;-82
2021/03/26 08:46:26;;;;;;;70.60;56.67;;;24.60;43.00;;;;;;5116235;28;20711;-84
2021/03/26 08:49:28;;;;;;;79.33;56.43;;;25.00;41.40;;;;;;5126447;28;20448;-87
2021/03/26 08:52:17;;;;;;;69.20;55.87;;;24.70;41.30;;;;;;5112625;27;20432;-83
2021/03/26 08:55:07;;;;;;;65.77;56.00;;;24.90;40.50;;;;;;5133653;27;20429;-82
2021/03/26 08:58:05;;;;;;;66.90;54.10;;;25.40;40.40;;;;;;5122060;28;20412;-85
2021/03/26 09:01:10;;;;;;;84.10;56.90;;;24.60;40.00;;;;;;5120700;28;20424;-84
2021/03/26 09:03:43;;;;;;;72.83;55.43;;;25.40;39.80;;;;;;5126418;28;20506;-83
2021/03/26 09:06:56;;;;;;;65.83;52.67;;;25.00;39.80;;;;;;5095255;28;20465;-83
2021/03/26 09:09:41;;;;;;;55.77;48.37;;;25.60;40.20;;;;;;5108628;27;20471;-82
2021/03/26 09:12:25;;;;;;;57.07;49.27;;;25.00;39.40;;;;;;5123026;28;20455;-82
2021/03/26 09:15:07;;;;;;;59.80;48.40;;;25.70;39.00;;;;;;5117507;28;20428;-84
2021/03/26 09:17:41;;;;;;;55.30;45.23;;;25.70;39.40;;;;;;5115990;28;20685;-83
2021/03/26 09:20:43;;;;;;;64.13;46.87;;;24.80;39.90;;;;;;5122372;27;20468;-81
2021/03/26 09:23:33;;;;;;;60.10;45.77;;;24.20;41.40;;;;;;5128333;27;20940;-82
2021/03/26 09:26:19;;;;;;;53.87;42.90;;;24.70;40.20;;;;;;5116175;28;20510;-81
2021/03/26 09:28:53;;;;;;;54.40;42.90;;;23.70;42.20;;;;;;5126103;27;20728;-83
2021/03/26 09:31:31;;;;;;;55.13;41.27;;;22.60;43.90;;;;;;5117182;28;20472;-81
2021/03/26 09:34:07;;;;;;;48.27;39.80;;;21.40;45.40;;;;;;5099263;28;20442;-80
2021/03/26 09:36:43;;;;;;;49.37;39.83;;;20.80;48.20;;;;;;5098384;28;20536;-81
2021/03/26 09:39:17;;;;;;;51.83;41.13;;;19.70;50.00;;;;;;5111884;28;20473;-81
2021/03/26 09:41:54;;;;;;;56.87;41.40;;;19.20;52.20;;;;;;5119643;28;20413;-81
2021/03/26 09:44:45;;;;;;;50.87;38.40;;;19.30;54.80;;;;;;5109306;28;20505;-81
2021/03/26 09:47:20;;;;;;;53.80;40.03;;;20.00;51.90;;;;;;5105868;28;20408;-81
2021/03/26 09:49:53;;;;;;;54.90;40.73;;;20.10;52.00;;;;;;5121580;28;20832;-81
2021/03/26 09:52:40;;;;;;;43.30;36.87;;;19.50;55.40;;;;;;5112078;27;20405;-82
2021/03/26 09:55:21;;;;;;;54.17;39.20;;;18.90;55.10;;;;;;5109187;28;20752;-83
2021/03/26 09:57:48;;;;;;;50.27;37.80;;;18.60;57.50;;;;;;5111878;28;20406;-81
2021/03/26 10:00:46;;;;;;;47.67;38.93;;;18.50;58.30;;;;;;5118364;28;20462;-81
2021/03/26 10:03:39;;;;;;;45.43;36.37;;;18.30;57.30;;;;;;5104044;28;20473;-80
2021/03/26 10:06:31;;;;;;;48.87;37.47;;;18.30;57.90;;;;;;5104360;28;20401;-82
2021/03/26 10:09:21;;;;;;;46.17;35.47;;;18.30;56.20;;;;;;5119432;28;20440;-82
2021/03/26 10:12:06;;;;;;;46.90;36.47;;;18.00;57.90;;;;;;5097116;28;20400;-82
2021/03/26 10:14:37;;;;;;;40.73;32.33;;;18.00;57.50;;;;;;5121590;28;20419;-81
2021/03/26 10:17:11;;;;;;;49.10;32.50;;;17.80;56.80;;;;;;5119845;28;20409;-83
2021/03/26 10:19:41;;;;;;;40.30;32.23;;;17.70;56.70;;;;;;5121750;27;20468;-82
2021/03/26 10:22:34;;;;;;;44.27;32.00;;;17.90;57.50;;;;;;5121798;28;20442;-82
2021/03/26 10:25:21;;;;;;;46.90;35.70;;;17.80;58.20;;;;;;5122649;28;20460;-83
2021/03/26 10:27:58;;;;;;;44.63;34.60;;;17.90;60.60;;;;;;5124910;28;20411;-84
2021/03/26 10:30:42;;;;;;;40.07;31.77;;;17.70;58.80;;;;;;5102158;28;20409;-83
2021/03/26 10:33:18;;;;;;;44.00;35.07;;;17.40;57.80;;;;;;5121369;27;20473;-82
2021/03/26 10:36:02;;;;;;;39.77;30.50;;;17.30;59.20;;;;;;5125921;27;20794;-83
2021/03/26 10:38:48;;;;;;;46.87;32.90;;;17.40;59.60;;;;;;5111314;28;20423;-83
2021/03/26 10:41:37;;;;;;;40.60;30.50;;;17.60;60.80;;;;;;5122402;27;20611;-82
2021/03/26 10:44:32;;;;;;;38.40;31.27;;;17.70;58.40;;;;;;5120203;28;20472;-81
2021/03/26 10:47:18;;;;;;;41.60;33.57;;;17.80;58.70;;;;;;5115384;28;20438;-81
2021/03/26 10:50:12;;;;;;;33.40;26.73;;;17.90;58.20;;;;;;5103419;28;20666;-82
2021/03/26 10:52:51;;;;;;;49.77;27.63;;;18.10;58.00;;;;;;5118700;28;20429;-82
2021/03/26 10:55:27;;;;;;;39.47;26.50;;;18.20;56.40;;;;;;5102663;28;20653;-81
2021/03/26 10:58:13;;;;;;;36.33;26.43;;;18.30;56.60;;;;;;5121289;28;20489;-82
2021/03/26 11:00:44;;;;;;;35.83;26.10;;;18.40;53.40;;;;;;5131039;27;20406;-82
2021/03/26 11:03:24;;;;;;;36.07;25.47;;;18.30;54.70;;;;;;5106703;28;20481;-82
2021/03/26 11:06:00;;;;;;;36.67;27.47;;;18.10;54.50;;;;;;5111537;28;20434;-82
2021/03/26 11:08:43;;;;;;;43.83;28.43;;;18.20;54.20;;;;;;5120885;28;20431;-83
2021/03/26 11:11:10;;;;;;;46.63;27.63;;;18.20;56.70;;;;;;5064990;28;20407;-81
2021/03/26 11:14:00;;;;;;;40.13;28.27;;;18.20;55.20;;;;;;5064895;28;20418;-82
2021/03/26 11:16:57;;;;;;;46.53;28.10;;;18.30;54.80;;;;;;5085101;28;20664;-80
2021/03/26 11:19:45;;;;;;;39.40;28.80;;;18.30;55.30;;;;;;5029742;28;20407;-81
2021/03/26 11:22:22;;;;;;;32.83;25.97;;;18.30;53.50;;;;;;5077300;28;20744;-80
2021/03/26 11:25:11;;;;;;;35.97;26.60;;;18.30;54.20;;;;;;5077877;28;20446;-81
2021/03/26 11:27:49;;;;;;;34.53;24.97;;;18.00;52.90;;;;;;5077327;28;20480;-82
2021/03/26 11:30:35;;;;;;;35.80;25.90;;;17.90;56.00;;;;;;5071814;28;20406;-82
2021/03/26 11:33:35;;;;;;;40.57;27.57;;;18.20;55.10;;;;;;5077219;28;20430;-81
2021/03/26 11:36:23;;;;;;;44.40;27.50;;;18.30;53.60;;;;;;5073853;28;20428;-81
2021/03/26 11:39:15;;;;;;;35.10;25.20;;;18.40;54.20;;;;;;5063313;28;20395;-81
2021/03/26 11:42:08;;;;;;;33.07;24.50;;;18.30;52.70;;;;;;5072801;28;20457;-81
2021/03/26 11:45:02;;;;;;;29.73;21.70;;;18.30;54.10;;;;;;5051539;28;20483;-81
2021/03/26 11:47:37;;;;;;;29.43;22.07;;;18.30;53.70;;;;;;5069582;28;20635;-81
2021/03/26 11:50:23;;;;;;;32.27;21.87;;;18.30;51.60;;;;;;5076948;28;20421;-81
2021/03/26 11:52:59;;;;;;;55.87;31.53;;;18.40;51.10;;;;;;5075052;28;20422;-83
2021/03/26 11:55:32;;;;;;;31.47;24.47;;;18.50;52.20;;;;;;5078415;28;20789;-80
2021/03/26 11:58:06;;;;;;;36.50;24.30;;;18.20;52.60;;;;;;5073884;28;20619;-80
2021/03/26 12:00:39;;;;;;;39.40;24.13;;;18.30;51.20;;;;;;5071195;28;20778;-80
2021/03/26 12:03:13;;;;;;;44.20;27.87;;;18.40;51.90;;;;;;5070720;28;20403;-82
2021/03/26 12:06:03;;;;;;;37.43;27.00;;;18.40;53.50;;;;;;5072958;28;20442;-81
2021/03/26 12:09:03;;;;;;;29.83;21.60;;;18.30;52.90;;;;;;5071638;28;20548;-82
2021/03/26 12:11:56;;;;;;;34.43;21.93;;;18.20;53.20;;;;;;5121025;28;20390;-81
2021/03/26 12:14:30;;;;;;;35.03;22.23;;;18.00;51.80;;;;;;5123376;28;20450;-82
2021/03/26 12:17:05;;;;;;;33.20;22.23;;;18.20;53.60;;;;;;5120318;28;20408;-82
2021/03/26 12:19:35;;;;;;;33.60;23.90;;;18.30;54.10;;;;;;5111258;27;20602;-82
2021/03/26 12:22:02;;;;;;;34.33;24.00;;;18.50;50.90;;;;;;5111676;28;20733;-81
2021/03/26 12:24:56;;;;;;;46.73;27.37;;;18.80;50.80;;;;;;5112957;28;20472;-80
2021/03/26 12:27:37;;;;;;;35.40;22.10;;;19.10;49.10;;;;;;5098031;28;20602;-81
2021/03/26 12:30:15;;;;;;;31.17;20.80;;;19.30;50.10;;;;;;5110932;28;20424;-80
2021/03/26 12:32:47;;;;;;;21.70;17.47;;;19.40;49.60;;;;;;5106530;28;20446;-83
2021/03/26 12:35:29;;;;;;;24.33;17.27;;;19.40;47.60;;;;;;5126180;27;20457;-82
2021/03/26 12:38:33;;;;;;;20.97;16.33;;;19.50;46.90;;;;;;5126863;28;20399;-80
2021/03/26 12:41:22;;;;;;;21.90;16.60;;;19.50;46.40;;;;;;5096439;28;20422;-81
2021/03/26 12:44:04;;;;;;;23.20;16.83;;;19.40;47.60;;;;;;5116847;28;20449;-82
2021/03/26 12:47:00;;;;;;;24.17;19.30;;;19.50;48.30;;;;;;5111796;28;20758;-82
2021/03/26 12:50:07;;;;;;;23.33;19.10;;;19.70;46.20;;;;;;5113379;28;20418;-82
2021/03/26 12:53:11;;;;;;;30.00;18.13;;;19.70;46.40;;;;;;5120028;28;20435;-82
2021/03/26 12:55:53;;;;;;;31.13;20.87;;;19.80;45.60;;;;;;5118402;28;20401;-81
2021/03/26 12:59:05;;;;;;;33.80;21.57;;;19.90;46.90;;;;;;5096985;28;20398;-83
2021/03/26 13:01:45;;;;;;;27.40;18.57;;;19.80;45.70;;;;;;5092584;28;20484;-81
2021/03/26 13:05:02;;;;;;;21.27;17.30;;;20.00;45.70;;;;;;5112476;28;20485;-81
2021/03/26 13:07:48;;;;;;;26.07;19.13;;;19.90;46.60;;;;;;5115016;28;20409;-81
2021/03/26 13:10:58;;;;;;;25.17;18.07;;;19.70;46.00;;;;;;5098468;28;20787;-81
2021/03/26 13:13:52;;;;;;;23.70;18.57;;;19.50;46.10;;;;;;5097182;28;20484;-88
2021/03/26 13:16:47;;;;;;;22.90;16.17;;;19.50;44.80;;;;;;5122721;28;20413;-87
2021/03/26 13:19:21;;;;;;;26.50;17.47;;;19.40;45.60;;;;;;5100978;28;20412;-86
2021/03/26 13:22:27;;;;;;;25.10;18.20;;;19.30;45.80;;;;;;5123848;27;20729;-89
2021/03/26 13:25:33;;;;;;;22.40;16.13;;;19.40;45.20;;;;;;5080822;28;20470;-89
2021/03/26 13:28:17;;;;;;;24.60;17.03;;;19.80;45.10;;;;;;5117509;28;20454;-88
2021/03/26 13:31:08;;;;;;;20.87;17.27;;;19.80;44.20;;;;;;5120054;28;20419;-88
2021/03/26 13:34:19;;;;;;;24.17;18.50;;;19.90;44.10;;;;;;5122511;28;20464;-88
2021/03/26 13:37:20;;;;;;;20.10;16.43;;;20.20;43.90;;;;;;5118231;28;20453;-88
2021/03/26 13:40:09;;;;;;;21.23;16.80;;;20.30;43.60;;;;;;5102297;28;20461;-86
2021/03/26 13:42:50;;;;;;;28.10;18.80;;;20.50;44.10;;;;;;5111617;27;20456;-86